Aircraft
UPR1002 PT-CAE C 208B
SBCO
Canoas Air Force Base
SBSM
Santa Maria Airport
Pilot:: Claudenir
Aircraft:: Black Square 208B Grand Caravan UP Linhas Aereas
Alternate: SBCX
Network: ivao
FLIGHT DETAILS
Distance: 133nm Duration 00h 56m
Cruise Speed: Flight Level: 14000
Validation: Validated Type Charter
Flight Fuel
ZFW: 2225
Block Fuel/Initial FOB: 573
Flight Fuel: 171
Cargo
Passengers: 7
Cargo: 0
ROUTE
ROUTE: DOPGA W18 KEXEL
REMARKS:
DATE
Date: 26-05-06
Departure Time: 1155
Cargo: 0
FLIGHT DETAILS
Crashed: No
Validator Comments: Validado por Rafael
Flight Rating: 99
LANDING ANALYSIS
Landing wind: 10º/9 kt
Landing heading: 293º
Landing VS:: -109 ft/min
Landing IAS:: 70 kt
Landing Force G: 1 G
Landing Bank: 1
Landing Pitch: -2
Landing Flaps: 100
Navigation Lights: ON
Landing Lights: ON
Beacon Lights: ON
Strobe Lights: ON
viserfly

ALTITUDE CHART

viserfly

MAIN EVENTS

DATE EVENT IAS ALTITUDE
2026-05-06 11:41:34 FLYacars version 1.3.5 0 28
2026-05-06 11:42:10 Aircraft boarding in progress 0 28
2026-05-06 11:42:10 Navigation Lights ON 0 28
2026-05-06 11:42:10 Strobe Lights ON 0 28
2026-05-06 11:42:11 Beacon Lights ON 0 28
2026-05-06 11:42:40 Starting Engine 1 0 28
2026-05-06 11:43:47 Taxi Lights ON 0 28
2026-05-06 11:51:27 FLAPS 33% 0 28
2026-05-06 11:51:38 Aircraft taxiing to runway 3 28
2026-05-06 11:52:05 Simulator Paused 18 28
2026-05-06 11:52:13 Simulator Un-Paused 18 28
2026-05-06 11:54:29 Landing Lights ON 0 25
2026-05-06 11:55:47 Detected Take-off roll, HDG 135, IAS 107kt, GS 108kt, G-force 1.0g, Pitch -0.2deg, Bank -0.1deg, Wind 030/01kt, Temp 18°C 107 27
2026-05-06 11:55:47 Airborne 107 27
2026-05-06 11:56:01 FLAPS 0% 124kt, ALT 241ft 124 241
2026-05-06 11:59:20 Taxi Lights OFF 142 4116
2026-05-06 12:06:13 Landing lights ON above 10000fts 130 11001
2026-05-06 12:07:45 Landing Lights OFF 126 12528
2026-05-06 12:09:39 Aircraft on Top Of Climb at 14265ft, IAS 129kt, GS 134kt, HDG 290deg, TAT 0deg, WIND 274/30kt 129 14265
2026-05-06 12:36:47 Aircraft on Top Of Descent at 13498ft, IAS 147kt, GS 156kt, HDG 300deg, TAT 2deg, WIND 278/28kt 147 13498
2026-05-06 12:39:36 Landing Lights ON 151 10144
2026-05-06 12:43:31 Simulator Paused 166 5353
2026-05-06 12:43:35 Simulator Un-Paused 166 5353
2026-05-06 12:47:10 FLAPS 33% 160kt, ALT 2584ft 160 2584
2026-05-06 12:48:44 FLAPS 66% 158kt, ALT 2304ft 158 2304
2026-05-06 12:49:36 FLAPS 100% 138kt, ALT 1904ft 138 1904
2026-05-06 12:52:02 Landed at destination with a landing rate of -109fpm, G-force 1.0g, Pitch -2.1deg, Bank 0.8deg, HDG 293deg, IAS 70kt, GS 73kt, Wind 010/09kt, Temp 26°C 70 278
2026-05-06 12:52:32 Aircraft taxiing to apron 24 288
2026-05-06 12:52:54 Landing Lights OFF 8 288
2026-05-06 12:53:03 Taxi Lights ON 8 288
2026-05-06 12:53:06 FLAPS 66% 8 288
2026-05-06 12:53:06 FLAPS 0% 8 288
2026-05-06 12:54:24 Simulator Paused 0 287
2026-05-06 12:54:26 Simulator Un-Paused 0 287
2026-05-06 12:54:41 Aircraft at gate/stand, ground services are moving into position, disembarkation has begun. Remaining FOB 402kg FLYacars v1.3.5 0 287
viserfly

ACARS DATA

DATE IAS GS ALTITUDE FUEL CONSUMED OAT FLIGHT STATUS
2026-05-06 11:42:04 0 0 28 0 19 BOARDING
2026-05-06 11:42:34 0 0 28 0 19 BOARDING
2026-05-06 11:43:04 0 0 28 0 19 BOARDING
2026-05-06 11:43:34 0 0 28 0 19 BOARDING
2026-05-06 11:44:04 0 0 28 1 19 BOARDING
2026-05-06 11:44:34 0 0 28 1 19 BOARDING
2026-05-06 11:45:04 0 0 28 2 19 BOARDING
2026-05-06 11:45:34 0 0 28 3 19 BOARDING
2026-05-06 11:46:04 0 0 28 3 19 BOARDING
2026-05-06 11:46:34 0 0 28 4 19 BOARDING
2026-05-06 11:47:04 0 0 28 5 19 BOARDING
2026-05-06 11:47:34 0 0 28 5 19 BOARDING
2026-05-06 11:48:04 0 0 28 6 19 BOARDING
2026-05-06 11:48:34 0 0 28 7 19 BOARDING
2026-05-06 11:49:04 0 0 28 7 19 BOARDING
2026-05-06 11:49:34 0 0 28 8 19 BOARDING
2026-05-06 11:50:04 0 0 28 9 19 BOARDING
2026-05-06 11:50:34 0 0 28 9 19 BOARDING
2026-05-06 11:51:04 0 0 28 10 19 BOARDING
2026-05-06 11:51:34 0 0 28 11 19 BOARDING
2026-05-06 11:52:04 18 20 28 11 18 TAXI TO RUNWAY
2026-05-06 11:52:34 14 16 27 12 18 TAXI TO RUNWAY
2026-05-06 11:53:04 9 10 27 12 18 TAXI TO RUNWAY
2026-05-06 11:53:34 20 21 27 13 18 TAXI TO RUNWAY
2026-05-06 11:54:04 16 16 26 14 18 TAXI TO RUNWAY
2026-05-06 11:54:34 0 0 25 15 18 TAXI TO RUNWAY
2026-05-06 11:55:04 0 0 25 15 18 TAXI TO RUNWAY
2026-05-06 11:55:34 45 47 26 16 18 TAXI TO RUNWAY
2026-05-06 11:56:04 128 130 246 18 18 TAKEOFF
2026-05-06 11:56:34 172 174 38 20 18 TAKEOFF
2026-05-06 11:57:04 107 123 1496 21 25 INITIAL CLIMB
2026-05-06 11:57:34 129 138 2035 23 25 INITIAL CLIMB
2026-05-06 11:58:04 139 133 2638 25 24 CLIMB
2026-05-06 11:58:34 141 134 3258 26 22 CLIMB
2026-05-06 11:59:04 141 137 3782 28 20 CLIMB
2026-05-06 11:59:34 142 139 4367 29 19 CLIMB
2026-05-06 12:00:04 145 144 4885 31 17 CLIMB
2026-05-06 12:00:34 144 143 5358 33 16 CLIMB
2026-05-06 12:01:04 142 140 5852 34 15 CLIMB
2026-05-06 12:01:34 140 138 6345 36 14 CLIMB
2026-05-06 12:02:04 140 137 6855 37 12 CLIMB
2026-05-06 12:02:34 138 136 7344 39 11 CLIMB
2026-05-06 12:03:04 138 136 7856 40 10 CLIMB
2026-05-06 12:03:34 136 135 8343 42 9 CLIMB
2026-05-06 12:04:04 134 133 8839 43 8 CLIMB
2026-05-06 12:04:34 133 132 9342 45 6 CLIMB
2026-05-06 12:05:04 132 132 9843 47 5 CLIMB
2026-05-06 12:05:34 131 131 10342 48 4 CLIMB
2026-05-06 12:06:04 130 131 10841 49 4 CLIMB
2026-05-06 12:06:34 129 130 11341 51 3 CLIMB
2026-05-06 12:07:04 127 128 11841 52 3 CLIMB
2026-05-06 12:07:34 127 128 12346 54 2 CLIMB
2026-05-06 12:08:04 125 127 12839 55 2 CLIMB
2026-05-06 12:08:34 123 125 13336 57 1 CLIMB
2026-05-06 12:09:04 122 125 13843 58 1 CLIMB
2026-05-06 12:09:34 127 131 14232 59 0 CLIMB
2026-05-06 12:10:04 138 145 14331 61 0 ENROUTE
2026-05-06 12:10:34 144 153 14355 62 0 ENROUTE
2026-05-06 12:11:04 147 156 14357 63 0 ENROUTE
2026-05-06 12:11:34 148 158 14357 65 0 ENROUTE
2026-05-06 12:12:04 148 158 14357 66 0 ENROUTE
2026-05-06 12:12:34 149 158 14357 67 0 ENROUTE
2026-05-06 12:13:04 149 159 14361 69 0 ENROUTE
2026-05-06 12:13:34 149 159 14357 70 0 ENROUTE
2026-05-06 12:14:04 148 158 14358 71 0 ENROUTE
2026-05-06 12:14:34 148 158 14361 73 0 ENROUTE
2026-05-06 12:15:04 148 159 14357 74 0 ENROUTE
2026-05-06 12:15:34 148 159 14361 75 0 ENROUTE
2026-05-06 12:16:04 149 159 14357 77 0 ENROUTE
2026-05-06 12:16:34 149 159 14362 78 0 ENROUTE
2026-05-06 12:17:04 149 159 14357 79 0 ENROUTE
2026-05-06 12:17:34 149 160 14358 81 0 ENROUTE
2026-05-06 12:18:04 149 159 14362 82 0 ENROUTE
2026-05-06 12:18:34 149 159 14358 83 0 ENROUTE
2026-05-06 12:19:04 149 159 14358 85 0 ENROUTE
2026-05-06 12:19:34 149 159 14360 86 0 ENROUTE
2026-05-06 12:20:04 149 159 14361 87 0 ENROUTE
2026-05-06 12:20:34 149 160 14361 89 0 ENROUTE
2026-05-06 12:21:04 150 161 14360 90 0 ENROUTE
2026-05-06 12:21:34 149 160 14357 91 0 ENROUTE
2026-05-06 12:22:04 149 159 14358 93 0 ENROUTE
2026-05-06 12:22:34 150 160 14360 94 0 ENROUTE
2026-05-06 12:23:04 149 160 14357 96 0 ENROUTE
2026-05-06 12:23:34 149 160 14357 97 0 ENROUTE
2026-05-06 12:24:04 149 160 14357 98 0 ENROUTE
2026-05-06 12:24:34 149 160 14361 100 0 ENROUTE
2026-05-06 12:25:04 150 161 14358 101 0 ENROUTE
2026-05-06 12:25:34 148 160 14357 102 0 ENROUTE
2026-05-06 12:26:04 149 160 14357 104 0 ENROUTE
2026-05-06 12:26:34 149 160 14360 105 0 ENROUTE
2026-05-06 12:27:04 149 160 14359 106 0 ENROUTE
2026-05-06 12:27:34 149 160 14360 108 0 ENROUTE
2026-05-06 12:28:04 150 161 14360 109 0 ENROUTE
2026-05-06 12:28:34 149 160 14359 110 0 ENROUTE
2026-05-06 12:29:04 149 160 14363 112 0 ENROUTE
2026-05-06 12:29:34 149 160 14359 113 1 ENROUTE
2026-05-06 12:30:04 149 160 14359 114 1 ENROUTE
2026-05-06 12:30:34 149 160 14361 116 1 ENROUTE
2026-05-06 12:31:04 149 160 14362 117 1 ENROUTE
2026-05-06 12:31:34 149 160 14361 118 1 ENROUTE
2026-05-06 12:32:04 148 160 14359 120 1 ENROUTE
2026-05-06 12:32:34 149 161 14359 121 1 ENROUTE
2026-05-06 12:33:04 149 160 14358 122 1 ENROUTE
2026-05-06 12:33:34 148 160 14360 124 1 ENROUTE
2026-05-06 12:34:04 149 160 14358 125 1 ENROUTE
2026-05-06 12:34:34 149 160 14358 126 1 ENROUTE
2026-05-06 12:35:04 149 160 14359 128 1 ENROUTE
2026-05-06 12:35:34 149 161 14358 129 1 ENROUTE
2026-05-06 12:36:04 149 161 14357 130 1 ENROUTE
2026-05-06 12:36:34 149 158 13776 131 1 DESCENT
2026-05-06 12:37:04 148 155 13182 132 2 DESCENT
2026-05-06 12:37:34 148 154 12579 133 3 DESCENT
2026-05-06 12:38:04 149 153 11980 134 3 DESCENT
2026-05-06 12:38:34 150 152 11383 135 4 DESCENT
2026-05-06 12:39:04 151 151 10778 136 5 DESCENT
2026-05-06 12:39:34 151 150 10185 137 6 DESCENT
2026-05-06 12:40:04 151 150 9581 138 7 DESCENT
2026-05-06 12:40:34 153 151 8984 139 8 DESCENT
2026-05-06 12:41:04 160 158 8391 140 9 DESCENT
2026-05-06 12:41:34 161 160 7794 141 11 DESCENT
2026-05-06 12:42:04 163 161 7195 143 12 DESCENT
2026-05-06 12:42:34 164 162 6594 144 13 DESCENT
2026-05-06 12:43:04 168 165 5923 145 15 DESCENT
2026-05-06 12:43:34 166 162 5353 146 17 DESCENT
2026-05-06 12:44:04 153 149 5163 147 17 ENROUTE
2026-05-06 12:44:34 162 161 4667 148 18 DESCENT
2026-05-06 12:45:04 169 168 3976 149 20 DESCENT
2026-05-06 12:45:34 163 160 3622 151 21 DESCENT
2026-05-06 12:46:04 166 164 3060 152 22 DESCENT
2026-05-06 12:46:34 161 162 2675 153 23 ENROUTE
2026-05-06 12:47:04 161 160 2617 154 23 ENROUTE
2026-05-06 12:47:34 150 148 2583 156 23 ENROUTE
2026-05-06 12:48:04 149 151 2631 157 23 ENROUTE
2026-05-06 12:48:34 158 160 2406 159 24 APPROACH
2026-05-06 12:49:04 141 141 2161 160 24 APPROACH
2026-05-06 12:49:34 137 138 1925 161 24 APPROACH
2026-05-06 12:50:04 114 117 1357 163 25 APPROACH
2026-05-06 12:50:34 104 106 1118 164 25 ON FINAL
2026-05-06 12:51:04 111 115 646 166 26 ON FINAL
2026-05-06 12:51:34 106 110 348 167 26 ON FINAL
2026-05-06 12:52:04 67 70 278 168 26 ON FINAL
2026-05-06 12:52:34 23 23 288 169 26 TAXI TO APRON
2026-05-06 12:53:04 8 0 288 170 26 TAXI TO APRON
2026-05-06 12:53:34 8 0 287 170 26 TAXI TO APRON
2026-05-06 12:54:04 8 0 287 171 26 TAXI TO APRON
2026-05-06 12:54:34 0 0 287 171 26 TAXI TO APRON
  • Join our VA!

    It has been 11 years of great learning, friendships, and stories.

  • Sign up now!